createdAt,value
2017-04-14T00:00:05.984Z,77.50
2017-04-14T00:01:06.232Z,77.30
2017-04-14T00:02:05.937Z,77.30
2017-04-14T00:03:05.733Z,77.30
2017-04-14T00:04:06.139Z,77.30
2017-04-14T00:05:06.870Z,77.50
2017-04-14T00:06:07.583Z,77.60
2017-04-14T00:07:07.708Z,77.80
2017-04-14T00:08:07.731Z,77.50
2017-04-14T00:09:08.031Z,77.50
2017-04-14T00:10:07.933Z,77.40
2017-04-14T00:11:07.946Z,77.30
2017-04-14T00:12:07.935Z,77.90
2017-04-14T00:13:07.902Z,77.10
2017-04-14T00:14:08.211Z,77.10
2017-04-14T00:15:08.257Z,77.20
2017-04-14T00:16:09.000Z,77.20
2017-04-14T00:17:08.975Z,77.40
2017-04-14T00:18:08.795Z,77.20
2017-04-14T00:19:08.801Z,77.30
2017-04-14T00:20:08.815Z,77.30
2017-04-14T00:21:08.830Z,77.60
2017-04-14T00:22:08.840Z,77.60
2017-04-14T00:23:13.940Z,77.80
2017-04-14T00:24:14.445Z,77.90
2017-04-14T00:25:15.346Z,77.80
2017-04-14T00:26:15.331Z,78.10
2017-04-14T00:27:15.332Z,78.20
2017-04-14T00:28:16.023Z,78.00
2017-04-14T00:29:16.397Z,77.80
2017-04-14T00:30:16.332Z,77.50
2017-04-14T00:31:17.107Z,77.30
2017-04-14T00:32:17.105Z,76.90
2017-04-14T00:33:17.098Z,76.60
2017-04-14T00:34:17.467Z,76.60
2017-04-14T00:35:17.423Z,76.70
2017-04-14T00:36:17.377Z,76.60
2017-04-14T00:37:17.397Z,76.60
2017-04-14T00:38:17.107Z,76.70
2017-04-14T00:39:17.089Z,76.50
2017-04-14T00:40:17.096Z,76.40
2017-04-14T00:41:17.106Z,76.30
2017-04-14T00:42:16.825Z,76.40
2017-04-14T00:43:16.874Z,76.40
2017-04-14T00:44:16.882Z,76.20
2017-04-14T00:45:17.927Z,76.10
2017-04-14T00:46:17.910Z,76.00
2017-04-14T00:47:17.849Z,76.20
2017-04-14T00:48:17.905Z,76.30
2017-04-14T00:49:17.873Z,76.40
2017-04-14T00:50:18.118Z,76.50
2017-04-14T00:51:18.075Z,76.60
2017-04-14T00:52:18.118Z,76.70
2017-04-14T00:53:17.915Z,76.40
2017-04-14T00:54:17.646Z,77.00
2017-04-14T00:55:17.944Z,77.10
2017-04-14T00:56:17.989Z,77.10
2017-04-14T00:57:17.970Z,77.30
2017-04-14T00:58:17.955Z,77.40
2017-04-14T00:59:18.021Z,77.40
2017-04-14T01:00:18.306Z,77.60
2017-04-14T01:01:19.056Z,77.80
2017-04-14T01:02:18.998Z,78.70
2017-04-14T01:03:18.962Z,78.60
2017-04-14T01:04:18.621Z,78.40
2017-04-14T01:05:18.901Z,78.20
2017-04-14T01:06:19.593Z,78.20
2017-04-14T01:07:19.602Z,78.10
2017-04-14T01:08:19.652Z,78.10
2017-04-14T01:09:20.335Z,78.00
2017-04-14T01:10:20.631Z,77.70
2017-04-14T01:11:20.550Z,77.60
2017-04-14T01:12:20.491Z,77.60
2017-04-14T01:13:21.353Z,77.70
2017-04-14T01:14:21.312Z,77.60
2017-04-14T01:15:22.344Z,77.60
2017-04-14T01:16:23.042Z,77.40
2017-04-14T01:17:23.085Z,77.40
2017-04-14T01:18:23.023Z,77.40
2017-04-14T01:19:22.940Z,77.30
2017-04-14T01:20:23.883Z,77.30
2017-04-14T01:21:23.830Z,77.40
2017-04-14T01:22:23.808Z,77.40
2017-04-14T01:23:24.660Z,77.40
2017-04-14T01:24:24.618Z,77.90
2017-04-14T01:25:24.960Z,77.20
2017-04-14T01:26:25.660Z,77.30
2017-04-14T01:27:25.612Z,77.30
2017-04-14T01:28:25.601Z,77.20
2017-04-14T01:29:26.280Z,77.20
2017-04-14T01:30:26.603Z,77.20
2017-04-14T01:31:26.571Z,77.90
2017-04-14T01:32:26.553Z,77.10
2017-04-14T01:33:27.067Z,77.00
2017-04-14T01:34:27.720Z,77.00
2017-04-14T01:35:28.066Z,77.10
2017-04-14T01:36:28.035Z,77.00
2017-04-14T01:37:27.941Z,77.00
2017-04-14T01:38:27.884Z,76.90
2017-04-14T01:39:27.849Z,76.80
2017-04-14T01:40:28.111Z,76.80
2017-04-14T01:41:28.060Z,76.90
2017-04-14T01:42:28.025Z,76.80
2017-04-14T01:43:27.964Z,77.50
2017-04-14T01:44:27.924Z,76.80
2017-04-14T01:45:28.293Z,76.80
2017-04-14T01:46:28.490Z,77.10
2017-04-14T01:47:28.568Z,77.20
2017-04-14T01:48:29.344Z,77.60
2017-04-14T01:49:29.274Z,77.70
2017-04-14T01:50:29.643Z,78.50
2017-04-14T01:51:29.612Z,78.00
2017-04-14T01:52:29.539Z,78.00
2017-04-14T01:53:30.327Z,78.10
2017-04-14T01:54:30.284Z,78.20
2017-04-14T01:55:30.643Z,78.20
2017-04-14T01:56:30.380Z,78.30
2017-04-14T01:57:30.187Z,78.30
2017-04-14T01:58:30.164Z,78.30
2017-04-14T01:59:30.226Z,78.30
2017-04-14T02:00:30.579Z,78.30
2017-04-14T02:01:30.611Z,78.90
2017-04-14T02:02:31.341Z,78.20
2017-04-14T02:03:31.274Z,78.30
2017-04-14T02:04:31.268Z,78.30
2017-04-14T02:05:31.570Z,78.40
2017-04-14T02:06:32.147Z,78.50
2017-04-14T02:07:32.877Z,78.70
2017-04-14T02:08:33.184Z,78.90
2017-04-14T02:09:33.183Z,79.20
2017-04-14T02:10:33.506Z,79.30
2017-04-14T02:11:33.536Z,79.30
2017-04-14T02:12:33.518Z,79.50
2017-04-14T02:13:33.555Z,79.60
2017-04-14T02:14:33.489Z,79.70
2017-04-14T02:15:33.844Z,79.90
2017-04-14T02:16:33.570Z,79.80
2017-04-14T02:17:34.272Z,79.90
2017-04-14T02:18:34.330Z,79.90
2017-04-14T02:19:39.551Z,80.00
2017-04-14T02:20:39.929Z,80.20
2017-04-14T02:21:39.899Z,80.20
2017-04-14T02:22:39.843Z,80.40
2017-04-14T02:23:39.921Z,80.60
2017-04-14T02:24:40.652Z,80.80
2017-04-14T02:25:40.973Z,80.90
2017-04-14T02:26:40.978Z,81.10
2017-04-14T02:27:40.979Z,81.30
2017-04-14T02:28:40.971Z,81.40
2017-04-14T02:29:40.952Z,81.50
2017-04-14T02:30:41.197Z,81.60
2017-04-14T02:31:41.154Z,81.50
2017-04-14T02:32:41.107Z,81.70
2017-04-14T02:33:41.097Z,81.70
2017-04-14T02:34:41.082Z,81.70
2017-04-14T02:35:41.436Z,81.80
2017-04-14T02:36:41.461Z,82.00
2017-04-14T02:37:41.993Z,82.10
2017-04-14T02:38:41.938Z,82.20
2017-04-14T02:39:41.850Z,82.40
2017-04-14T02:40:42.174Z,82.60
2017-04-14T02:41:42.131Z,82.80
2017-04-14T02:42:42.075Z,82.80
2017-04-14T02:43:42.097Z,82.80
2017-04-14T02:44:42.030Z,82.90
2017-04-14T02:45:42.862Z,83.00
2017-04-14T02:46:42.848Z,83.10
2017-04-14T02:47:42.972Z,83.10
2017-04-14T02:48:43.800Z,83.10
2017-04-14T02:49:43.808Z,83.10
2017-04-14T02:50:44.804Z,83.10
2017-04-14T02:51:44.884Z,83.00
2017-04-14T02:52:44.825Z,83.10
2017-04-14T02:53:44.830Z,83.00
2017-04-14T02:54:44.761Z,83.00
2017-04-14T02:55:45.854Z,83.10
2017-04-14T02:56:45.810Z,83.10
2017-04-14T02:57:45.861Z,83.20
2017-04-14T02:58:45.807Z,83.10
2017-04-14T02:59:45.789Z,83.20
2017-04-14T03:00:46.085Z,83.30
2017-04-14T03:01:46.066Z,83.40
2017-04-14T03:02:46.023Z,83.50
2017-04-14T03:03:46.556Z,83.60
2017-04-14T03:04:46.664Z,83.40
2017-04-14T03:05:47.008Z,83.50
2017-04-14T03:06:46.987Z,83.50
2017-04-14T03:07:46.938Z,83.50
2017-04-14T03:08:46.847Z,83.50
2017-04-14T03:09:46.808Z,83.60
2017-04-14T03:10:47.073Z,83.70
2017-04-14T03:11:47.009Z,83.70
2017-04-14T03:12:47.683Z,83.80
2017-04-14T03:13:47.683Z,83.80
2017-04-14T03:14:47.677Z,83.80
2017-04-14T03:15:48.020Z,83.80
2017-04-14T03:16:48.010Z,83.80
2017-04-14T03:17:47.959Z,83.90
2017-04-14T03:18:47.855Z,83.90
2017-04-14T03:19:47.883Z,84.00
2017-04-14T03:20:48.948Z,84.00
2017-04-14T03:21:48.895Z,84.00
2017-04-14T03:22:48.837Z,84.00
2017-04-14T03:23:48.798Z,84.10
2017-04-14T03:24:48.807Z,84.10
2017-04-14T03:25:49.116Z,84.10
2017-04-14T03:26:48.819Z,84.20
2017-04-14T03:27:48.650Z,84.70
2017-04-14T03:28:48.345Z,84.50
2017-04-14T03:29:48.145Z,84.50
2017-04-14T03:30:48.929Z,84.60
2017-04-14T03:31:49.261Z,84.60
2017-04-14T03:32:48.976Z,84.60
2017-04-14T03:33:48.995Z,84.50
2017-04-14T03:34:48.968Z,84.50
2017-04-14T03:35:48.991Z,84.50
2017-04-14T03:36:50.102Z,84.90
2017-04-14T03:37:50.124Z,84.50
2017-04-14T03:38:50.073Z,84.50
2017-04-14T03:39:50.123Z,84.60
2017-04-14T03:40:50.102Z,84.60
2017-04-14T03:41:50.439Z,84.60
2017-04-14T03:42:50.441Z,84.60
2017-04-14T03:43:50.406Z,84.60
2017-04-14T03:44:50.368Z,84.40
2017-04-14T03:45:50.396Z,84.40
2017-04-14T03:46:50.668Z,84.50
2017-04-14T03:47:50.585Z,84.50
2017-04-14T03:48:50.522Z,84.40
2017-04-14T03:49:50.971Z,84.30
2017-04-14T03:50:50.930Z,84.30
2017-04-14T03:51:52.053Z,84.30
2017-04-14T03:52:52.076Z,84.10
2017-04-14T03:53:52.037Z,84.20
2017-04-14T03:54:51.973Z,84.10
2017-04-14T03:55:51.962Z,84.00
2017-04-14T03:56:51.943Z,84.00
2017-04-14T03:57:51.900Z,84.00
2017-04-14T03:58:52.589Z,84.20
2017-04-14T03:59:52.623Z,84.20
2017-04-14T04:00:52.591Z,84.20
2017-04-14T04:01:52.603Z,84.10
2017-04-14T04:02:52.867Z,84.10
2017-04-14T04:03:52.837Z,84.10
2017-04-14T04:04:52.898Z,84.00
2017-04-14T04:05:52.665Z,84.00
2017-04-14T04:06:52.568Z,84.00
2017-04-14T04:07:53.578Z,84.00
2017-04-14T04:08:53.603Z,84.10
2017-04-14T04:09:54.359Z,84.20
2017-04-14T04:10:54.260Z,84.20
2017-04-14T04:11:54.270Z,84.20
2017-04-14T04:12:54.623Z,84.40
2017-04-14T04:13:54.541Z,84.40
2017-04-14T04:14:54.460Z,84.30
2017-04-14T04:15:54.464Z,84.30
2017-04-14T04:16:55.148Z,84.30
2017-04-14T04:17:55.467Z,84.20
2017-04-14T04:18:55.409Z,84.30
2017-04-14T04:19:56.374Z,84.30
2017-04-14T04:20:56.346Z,84.20
2017-04-14T04:21:56.323Z,84.30
2017-04-14T04:22:56.625Z,84.20
2017-04-14T04:23:56.490Z,84.30
2017-04-14T04:24:56.483Z,84.20
2017-04-14T04:25:56.417Z,84.20
2017-04-14T04:26:56.374Z,84.40
2017-04-14T04:27:57.383Z,84.40
2017-04-14T04:28:57.304Z,84.40
2017-04-14T04:29:58.021Z,84.30
2017-04-14T04:30:58.015Z,84.30
2017-04-14T04:33:03.483Z,84.40
2017-04-14T04:34:08.903Z,85.10
2017-04-14T04:35:09.649Z,84.50
2017-04-14T04:36:09.589Z,84.70
2017-04-14T04:37:09.571Z,84.70
2017-04-14T04:38:09.818Z,84.80
2017-04-14T04:39:09.806Z,84.80
2017-04-14T04:40:10.531Z,84.80
2017-04-14T04:41:10.583Z,84.60
2017-04-14T04:42:11.352Z,84.50
2017-04-14T04:43:11.698Z,84.40
2017-04-14T04:44:11.691Z,84.20
2017-04-14T04:45:11.688Z,84.30
2017-04-14T04:46:11.634Z,84.20
2017-04-14T04:47:11.613Z,84.10
2017-04-14T04:48:12.647Z,84.70
2017-04-14T04:49:12.700Z,88.00
2017-04-14T04:50:12.746Z,87.70
2017-04-14T04:51:12.760Z,87.90
2017-04-14T04:52:12.787Z,88.20
2017-04-14T04:53:13.203Z,87.00
2017-04-14T04:54:12.984Z,87.10
2017-04-14T04:55:12.943Z,86.00
2017-04-14T04:56:12.906Z,85.70
2017-04-14T04:57:12.908Z,85.00
2017-04-14T04:58:12.742Z,83.40
2017-04-14T04:59:13.075Z,82.70
2017-04-14T05:00:13.165Z,82.40
2017-04-14T05:01:13.139Z,82.10
2017-04-14T05:02:13.125Z,82.10
2017-04-14T05:03:13.177Z,82.00
2017-04-14T05:04:13.292Z,82.00
2017-04-14T05:05:13.318Z,80.80
2017-04-14T05:06:13.267Z,80.30
2017-04-14T05:07:13.235Z,79.70
2017-04-14T05:08:13.188Z,79.20
2017-04-14T05:09:13.603Z,79.00
2017-04-14T05:10:13.635Z,78.60
2017-04-14T05:11:13.658Z,77.80
2017-04-14T05:12:13.754Z,77.50
2017-04-14T05:13:13.795Z,77.40
2017-04-14T05:14:14.857Z,77.00
2017-04-14T05:15:14.856Z,76.60
2017-04-14T05:16:14.695Z,76.70
2017-04-14T05:17:14.555Z,76.80
2017-04-14T05:18:14.585Z,76.80
2017-04-14T05:19:14.991Z,76.90
2017-04-14T05:20:14.701Z,77.40
2017-04-14T05:21:14.696Z,77.60
2017-04-14T05:22:14.666Z,77.60
2017-04-14T05:23:14.652Z,77.90
2017-04-14T05:24:14.658Z,77.60
2017-04-14T05:25:14.677Z,77.30
2017-04-14T05:26:14.619Z,77.60
2017-04-14T05:27:14.353Z,77.90
2017-04-14T05:28:14.398Z,78.20
2017-04-14T05:29:14.746Z,79.00
2017-04-14T05:30:14.681Z,77.90
2017-04-14T05:31:14.641Z,77.80
2017-04-14T05:32:14.682Z,77.80
2017-04-14T05:33:14.668Z,77.90
2017-04-14T05:34:15.119Z,78.10
2017-04-14T05:35:15.129Z,78.20
2017-04-14T05:36:14.834Z,78.40
2017-04-14T05:37:14.565Z,78.70
2017-04-14T05:38:14.570Z,78.70
2017-04-14T05:39:16.241Z,78.70
2017-04-14T05:40:15.982Z,79.30
2017-04-14T05:41:15.770Z,79.70
2017-04-14T05:42:15.767Z,80.20
2017-04-14T05:43:15.796Z,80.20
2017-04-14T05:44:15.782Z,80.40
2017-04-14T05:45:16.474Z,80.30
2017-04-14T05:46:16.481Z,80.50
2017-04-14T05:47:16.506Z,80.40
2017-04-14T05:48:16.641Z,80.40
2017-04-14T05:49:16.605Z,80.30
2017-04-14T05:50:16.932Z,80.30
2017-04-14T05:51:16.872Z,80.30
2017-04-14T05:52:16.797Z,80.40
2017-04-14T05:53:16.754Z,80.50
2017-04-14T05:54:16.699Z,80.60
2017-04-14T05:55:16.640Z,80.60
2017-04-14T05:56:16.936Z,81.20
2017-04-14T05:57:16.925Z,80.60
2017-04-14T05:58:16.941Z,80.70
2017-04-14T05:59:16.887Z,80.60
2017-04-14T06:00:16.848Z,80.40
2017-04-14T06:01:17.129Z,80.20
2017-04-14T06:02:17.127Z,80.20
2017-04-14T06:03:17.074Z,80.40
2017-04-14T06:04:17.161Z,80.40
2017-04-14T06:05:17.891Z,81.30
2017-04-14T06:06:18.256Z,80.60
2017-04-14T06:07:18.268Z,80.40
2017-04-14T06:08:18.228Z,80.30
2017-04-14T06:09:18.202Z,80.40
2017-04-14T06:10:18.145Z,80.40
2017-04-14T06:11:18.446Z,80.60
2017-04-14T06:12:18.412Z,80.80
2017-04-14T06:13:19.152Z,80.90
2017-04-14T06:14:18.853Z,80.90
2017-04-14T06:15:18.857Z,80.70
2017-04-14T06:16:19.127Z,80.80
2017-04-14T06:17:19.942Z,80.90
2017-04-14T06:18:19.974Z,80.90
2017-04-14T06:19:20.052Z,80.90
2017-04-14T06:20:20.084Z,80.90
2017-04-14T06:21:20.346Z,80.90
2017-04-14T06:22:20.686Z,80.60
2017-04-14T06:23:20.623Z,80.40
2017-04-14T06:24:21.351Z,81.20
2017-04-14T06:25:22.089Z,80.80
2017-04-14T06:26:22.513Z,80.90
2017-04-14T06:27:22.503Z,81.00
2017-04-14T06:28:22.432Z,81.00
2017-04-14T06:29:22.403Z,80.90
2017-04-14T06:30:22.927Z,80.70
2017-04-14T06:31:23.322Z,80.50
2017-04-14T06:32:23.630Z,80.50
2017-04-14T06:33:23.592Z,80.50
2017-04-14T06:34:23.535Z,80.20
2017-04-14T06:35:23.265Z,80.00
2017-04-14T06:36:23.661Z,79.90
2017-04-14T06:37:23.754Z,79.80
2017-04-14T06:38:24.321Z,79.90
2017-04-14T06:39:24.237Z,80.50
2017-04-14T06:40:24.227Z,79.90
2017-04-14T06:41:24.500Z,80.20
2017-04-14T06:42:24.489Z,79.70
2017-04-14T06:43:24.392Z,79.50
2017-04-14T06:44:24.425Z,79.10
2017-04-14T06:45:24.414Z,78.90
2017-04-14T06:46:24.825Z,78.60
2017-04-14T06:47:24.835Z,78.40
2017-04-14T06:48:24.824Z,78.20
2017-04-14T06:49:25.286Z,77.90
2017-04-14T06:50:25.339Z,77.60
2017-04-14T06:51:25.639Z,77.50
2017-04-14T06:52:26.473Z,77.60
2017-04-14T06:53:27.252Z,77.60
2017-04-14T06:54:27.245Z,77.80
2017-04-14T06:55:27.266Z,78.00
2017-04-14T06:56:28.282Z,78.20
2017-04-14T06:57:28.285Z,78.30
2017-04-14T06:58:28.291Z,78.60
2017-04-14T06:59:28.263Z,78.60
2017-04-14T07:00:28.271Z,78.80
2017-04-14T07:01:28.583Z,79.00
2017-04-14T07:02:28.732Z,79.30
2017-04-14T07:03:28.727Z,79.40
2017-04-14T07:04:28.760Z,79.10
2017-04-14T07:05:28.734Z,78.90
2017-04-14T07:06:28.858Z,78.00
2017-04-14T07:07:28.881Z,78.00
2017-04-14T07:08:28.889Z,78.00
2017-04-14T07:09:28.840Z,77.90
2017-04-14T07:10:28.833Z,78.00
2017-04-14T07:11:29.181Z,78.00
2017-04-14T07:12:29.182Z,78.00
2017-04-14T07:13:31.668Z,78.00
2017-04-14T07:14:31.795Z,78.00
2017-04-14T07:15:31.792Z,77.90
2017-04-14T07:16:32.127Z,77.90
2017-04-14T07:17:32.192Z,77.70
2017-04-14T07:18:31.926Z,77.80
2017-04-14T07:19:31.984Z,77.80
2017-04-14T07:20:31.977Z,77.70
2017-04-14T07:21:32.146Z,77.70
2017-04-14T07:22:32.898Z,77.60
2017-04-14T07:23:32.931Z,77.60
2017-04-14T07:24:32.869Z,77.70
2017-04-14T07:25:33.518Z,77.70
2017-04-14T07:26:33.958Z,77.60
2017-04-14T07:27:33.918Z,77.50
2017-04-14T07:28:34.743Z,77.60
2017-04-14T07:29:35.565Z,77.50
2017-04-14T07:30:36.346Z,77.40
2017-04-14T07:31:36.627Z,77.30
2017-04-14T07:32:36.657Z,77.30
2017-04-14T07:33:36.607Z,77.00
2017-04-14T07:34:36.592Z,76.70
2017-04-14T07:35:36.630Z,76.60
2017-04-14T07:36:37.758Z,76.90
2017-04-14T07:37:37.744Z,76.80
2017-04-14T07:38:37.726Z,76.90
2017-04-14T07:39:37.719Z,76.90
2017-04-14T07:40:37.772Z,76.80
2017-04-14T07:41:38.096Z,76.70
2017-04-14T07:42:38.856Z,76.80
2017-04-14T07:43:38.703Z,76.90
2017-04-14T07:44:38.747Z,76.70
2017-04-14T07:45:38.756Z,76.70
2017-04-14T07:46:39.023Z,76.90
2017-04-14T07:47:39.047Z,76.90
2017-04-14T07:48:38.986Z,76.90
2017-04-14T07:49:39.262Z,77.00
2017-04-14T07:50:40.275Z,77.00
2017-04-14T07:51:40.578Z,77.00
2017-04-14T07:52:40.586Z,76.90
2017-04-14T07:53:40.316Z,76.80
2017-04-14T07:54:40.049Z,76.70
2017-04-14T07:55:40.874Z,76.50
2017-04-14T07:56:40.946Z,76.30
2017-04-14T07:57:40.960Z,76.30
2017-04-14T07:58:40.961Z,76.10
2017-04-14T07:59:41.735Z,76.10
2017-04-14T08:00:41.670Z,75.90
2017-04-14T08:01:41.981Z,75.70
2017-04-14T08:02:41.711Z,75.30
2017-04-14T08:03:41.709Z,75.10
2017-04-14T08:04:42.488Z,75.60
2017-04-14T08:05:42.556Z,74.60
2017-04-14T08:06:42.924Z,75.20
2017-04-14T08:07:42.981Z,74.40
2017-04-14T08:08:42.957Z,74.40
2017-04-14T08:09:42.971Z,74.30
2017-04-14T08:10:43.691Z,74.60
2017-04-14T08:11:44.010Z,73.90
2017-04-14T08:12:44.727Z,73.90
2017-04-14T08:13:44.584Z,74.00
2017-04-14T08:14:44.637Z,74.30
2017-04-14T08:15:44.615Z,74.50
2017-04-14T08:16:44.767Z,74.10
2017-04-14T08:17:44.746Z,74.10
2017-04-14T08:18:44.755Z,74.00
2017-04-14T08:19:44.707Z,74.00
2017-04-14T08:20:44.955Z,74.10
2017-04-14T08:21:45.209Z,74.30
2017-04-14T08:22:45.151Z,74.40
2017-04-14T08:23:45.108Z,74.20
2017-04-14T08:24:45.799Z,74.00
2017-04-14T08:25:45.544Z,73.50
2017-04-14T08:26:45.913Z,72.90
2017-04-14T08:27:46.529Z,72.90
2017-04-14T08:28:46.570Z,73.10
2017-04-14T08:29:47.249Z,72.70
2017-04-14T08:30:47.242Z,72.80
2017-04-14T08:31:47.605Z,73.00
2017-04-14T08:32:47.553Z,73.00
2017-04-14T08:33:47.487Z,73.20
2017-04-14T08:34:47.476Z,73.60
2017-04-14T08:35:47.480Z,73.80
2017-04-14T08:36:47.857Z,73.90
2017-04-14T08:37:48.525Z,73.80
2017-04-14T08:38:48.448Z,73.90
2017-04-14T08:39:48.432Z,73.50
2017-04-14T08:40:48.559Z,73.50
2017-04-14T08:41:48.886Z,73.60
2017-04-14T08:42:48.910Z,73.70
2017-04-14T08:43:48.869Z,73.50
2017-04-14T08:44:48.841Z,73.50
2017-04-14T08:45:48.791Z,73.50
2017-04-14T08:46:49.131Z,73.30
2017-04-14T08:47:49.119Z,73.00
2017-04-14T08:48:49.073Z,73.20
2017-04-14T08:49:49.029Z,73.20
2017-04-14T08:50:48.963Z,72.70
2017-04-14T08:51:49.015Z,72.60
2017-04-14T08:52:49.990Z,72.70
2017-04-14T08:53:50.480Z,72.90
2017-04-14T08:54:51.185Z,73.00
2017-04-14T08:55:51.892Z,72.80
2017-04-14T08:56:52.152Z,72.60
2017-04-14T08:57:52.113Z,72.40
2017-04-14T08:58:52.065Z,72.10
2017-04-14T08:59:52.093Z,72.00
2017-04-14T09:00:52.052Z,72.20
2017-04-14T09:01:52.292Z,72.40
2017-04-14T09:02:52.250Z,72.50
2017-04-14T09:03:52.265Z,72.00
2017-04-14T09:04:52.954Z,72.10
2017-04-14T09:05:52.921Z,72.20
2017-04-14T09:06:53.203Z,72.30
2017-04-14T09:07:53.873Z,73.00
2017-04-14T09:08:54.635Z,72.50
2017-04-14T09:09:54.656Z,71.80
2017-04-14T09:10:54.590Z,71.70
2017-04-14T09:11:54.909Z,71.70
2017-04-14T09:12:54.891Z,71.70
2017-04-14T09:13:54.899Z,71.40
2017-04-14T09:14:54.844Z,71.60
2017-04-14T09:15:54.790Z,71.40
2017-04-14T09:16:55.129Z,71.10
2017-04-14T09:17:55.057Z,71.10
2017-04-14T09:18:55.749Z,71.10
2017-04-14T09:19:55.646Z,71.00
2017-04-14T09:20:55.599Z,71.00
2017-04-14T09:21:55.915Z,71.00
2017-04-14T09:22:55.955Z,71.00
2017-04-14T09:23:55.901Z,70.90
2017-04-14T09:24:55.854Z,70.80
2017-04-14T09:25:55.795Z,70.90
2017-04-14T09:26:56.048Z,71.00
2017-04-14T09:27:56.261Z,71.50
2017-04-14T09:28:56.414Z,71.30
2017-04-14T09:29:56.386Z,71.00
2017-04-14T09:30:56.456Z,70.80
2017-04-14T09:31:56.856Z,70.60
2017-04-14T09:32:56.832Z,70.70
2017-04-14T09:33:56.605Z,70.90
2017-04-14T09:34:56.573Z,70.80
2017-04-14T09:35:56.536Z,70.80
2017-04-14T09:36:56.506Z,70.80
2017-04-14T09:37:57.540Z,70.90
2017-04-14T09:38:57.457Z,70.90
2017-04-14T09:39:57.422Z,70.60
2017-04-14T09:40:57.357Z,70.70
2017-04-14T09:41:57.687Z,70.70
2017-04-14T09:42:57.937Z,70.70
2017-04-14T09:43:57.887Z,70.70
2017-04-14T09:44:57.906Z,70.70
2017-04-14T09:45:57.873Z,70.70
2017-04-14T09:46:57.881Z,70.50
2017-04-14T09:47:58.185Z,70.50
2017-04-14T09:48:58.143Z,70.70
2017-04-14T09:49:57.819Z,71.20
2017-04-14T09:50:57.621Z,71.50
2017-04-14T09:51:57.351Z,71.50
2017-04-14T09:52:57.417Z,71.40
2017-04-14T09:53:58.541Z,71.50
2017-04-14T09:54:58.601Z,71.70
2017-04-14T09:55:58.619Z,71.40
2017-04-14T09:56:58.587Z,71.40
2017-04-14T09:57:58.570Z,71.60
2017-04-14T09:58:58.860Z,70.70
2017-04-14T09:59:58.825Z,70.20
2017-04-14T10:00:58.829Z,70.50
2017-04-14T10:01:58.817Z,70.80
2017-04-14T10:02:58.780Z,70.60
2017-04-14T10:03:58.930Z,70.70
2017-04-14T10:04:58.938Z,70.90
2017-04-14T10:05:58.894Z,71.00
2017-04-14T10:06:58.643Z,71.10
2017-04-14T10:07:58.655Z,72.20
2017-04-14T10:08:58.954Z,71.50
2017-04-14T10:09:59.771Z,71.50
2017-04-14T10:10:59.750Z,71.50
2017-04-14T10:11:59.732Z,71.40
2017-04-14T10:12:59.697Z,71.70
2017-04-14T10:14:00.722Z,72.10
2017-04-14T10:15:00.802Z,72.10
2017-04-14T10:16:01.047Z,72.10
2017-04-14T10:17:01.770Z,72.50
2017-04-14T10:18:01.772Z,72.20
2017-04-14T10:19:02.903Z,73.00
2017-04-14T10:20:03.617Z,72.20
2017-04-14T10:21:03.641Z,72.40
2017-04-14T10:22:03.651Z,72.30
2017-04-14T10:23:03.628Z,72.20
2017-04-14T10:24:04.656Z,72.30
2017-04-14T10:25:04.589Z,72.30
2017-04-14T10:26:04.620Z,73.10
2017-04-14T10:27:04.613Z,72.30
2017-04-14T10:28:04.601Z,71.90
2017-04-14T10:29:05.619Z,71.70
2017-04-14T10:30:05.608Z,71.10
2017-04-14T10:31:05.602Z,70.60
2017-04-14T10:32:05.619Z,70.40
2017-04-14T10:33:05.649Z,70.20
2017-04-14T10:34:06.827Z,70.70
2017-04-14T10:35:06.808Z,70.70
2017-04-14T10:36:06.802Z,70.40
2017-04-14T10:37:07.445Z,69.90
2017-04-14T10:38:07.431Z,69.00
2017-04-14T10:39:08.522Z,69.00
2017-04-14T10:40:08.521Z,68.70
2017-04-14T10:41:08.505Z,68.20
2017-04-14T10:42:08.466Z,67.90
2017-04-14T10:43:09.356Z,67.40
2017-04-14T10:44:09.412Z,67.50
2017-04-14T10:45:09.927Z,67.90
2017-04-14T10:46:09.671Z,67.80
2017-04-14T10:47:09.640Z,67.60
2017-04-14T10:48:09.646Z,67.30
2017-04-14T10:49:09.924Z,67.30
2017-04-14T10:50:09.677Z,67.20
2017-04-14T10:51:09.657Z,66.90
2017-04-14T10:52:10.364Z,67.10
2017-04-14T10:53:10.414Z,66.90
2017-04-14T10:54:10.670Z,67.10
2017-04-14T10:55:10.409Z,67.30
2017-04-14T10:56:10.120Z,67.70
2017-04-14T10:57:10.128Z,67.20
2017-04-14T10:58:10.097Z,67.30
2017-04-14T10:59:11.206Z,67.80
2017-04-14T11:00:11.184Z,67.60
2017-04-14T11:01:11.190Z,67.70
2017-04-14T11:02:11.220Z,67.40
2017-04-14T11:03:11.185Z,66.60
2017-04-14T11:04:11.427Z,66.50
2017-04-14T11:05:11.378Z,65.90
2017-04-14T11:06:11.357Z,65.70
2017-04-14T11:07:11.283Z,65.20
2017-04-14T11:08:11.995Z,65.10
2017-04-14T11:09:12.307Z,64.40
2017-04-14T11:10:12.294Z,63.80
2017-04-14T11:11:12.251Z,63.80
2017-04-14T11:12:12.310Z,64.00
2017-04-14T11:13:12.240Z,64.00
2017-04-14T11:14:13.377Z,63.30
2017-04-14T11:15:13.350Z,61.30
2017-04-14T11:16:13.333Z,60.70
2017-04-14T11:17:13.514Z,60.90
2017-04-14T11:18:13.489Z,61.20
2017-04-14T11:19:13.811Z,60.10
2017-04-14T11:20:14.544Z,59.20
2017-04-14T11:21:14.522Z,59.10
2017-04-14T11:22:14.497Z,59.70
2017-04-14T11:23:14.465Z,59.70
2017-04-14T11:24:14.582Z,59.70
2017-04-14T11:25:15.331Z,59.20
2017-04-14T11:26:15.283Z,58.80
2017-04-14T11:27:15.264Z,58.80
2017-04-14T11:28:15.249Z,58.20
2017-04-14T11:29:15.580Z,58.40
2017-04-14T11:30:15.656Z,57.60
2017-04-14T11:31:15.707Z,58.50
2017-04-14T11:32:15.714Z,57.90
2017-04-14T11:33:15.681Z,58.20
2017-04-14T11:34:16.052Z,58.30
2017-04-14T11:35:15.985Z,58.40
2017-04-14T11:36:15.827Z,58.30
2017-04-14T11:37:15.670Z,58.00
2017-04-14T11:38:16.646Z,57.60
2017-04-14T11:39:18.006Z,56.90
2017-04-14T11:40:17.845Z,56.80
2017-04-14T11:41:17.775Z,56.90
2017-04-14T11:43:48.683Z,56.20
2017-04-14T11:44:49.045Z,56.20
2017-04-14T11:45:49.112Z,56.30
2017-04-14T11:46:49.056Z,56.40
2017-04-14T11:47:49.000Z,55.30
2017-04-14T11:48:49.086Z,55.50
2017-04-14T11:49:49.405Z,55.80
2017-04-14T11:50:49.460Z,55.50
2017-04-14T11:51:49.422Z,55.00
2017-04-14T11:52:49.411Z,55.00
2017-04-14T11:53:49.457Z,54.30
2017-04-14T11:54:49.834Z,53.30
2017-04-14T11:55:49.878Z,53.10
2017-04-14T11:56:50.589Z,53.50
2017-04-14T11:57:50.375Z,54.10
2017-04-14T11:58:50.105Z,53.60
2017-04-14T11:59:52.333Z,53.40
2017-04-14T12:00:52.385Z,52.90
2017-04-14T12:01:52.332Z,52.80
2017-04-14T12:02:52.391Z,52.80
2017-04-14T12:03:52.336Z,52.70
2017-04-14T12:04:52.692Z,52.70
2017-04-14T12:05:53.413Z,53.10
2017-04-14T12:06:54.228Z,53.30
2017-04-14T12:07:54.239Z,53.10
2017-04-14T12:08:54.233Z,53.50
2017-04-14T12:09:54.559Z,54.00
2017-04-14T12:10:55.247Z,52.70
2017-04-14T12:11:55.222Z,52.20
2017-04-14T12:12:55.299Z,51.90
2017-04-14T12:13:56.057Z,51.50
2017-04-14T12:14:56.144Z,50.40
2017-04-14T12:15:56.122Z,51.20
2017-04-14T12:16:56.207Z,50.20
2017-04-14T12:17:55.954Z,50.50
2017-04-14T12:18:56.723Z,50.30
2017-04-14T12:19:57.832Z,49.60
2017-04-14T12:20:57.873Z,49.10
2017-04-14T12:21:57.844Z,48.20
2017-04-14T12:22:57.800Z,48.60
2017-04-14T12:23:57.754Z,48.90
2017-04-14T12:24:58.104Z,49.10
2017-04-14T12:25:58.067Z,49.70
2017-04-14T12:26:58.057Z,50.90
2017-04-14T12:27:58.889Z,51.40
2017-04-14T12:28:58.872Z,51.40
2017-04-14T12:29:59.994Z,51.70
2017-04-14T12:30:59.959Z,50.50
2017-04-14T12:31:59.889Z,50.00
2017-04-14T12:32:59.918Z,50.40
2017-04-14T12:33:59.736Z,50.60
2017-04-14T12:35:00.126Z,50.20
2017-04-14T12:36:00.094Z,49.60
2017-04-14T12:36:59.856Z,50.50
2017-04-14T12:38:00.539Z,50.80
2017-04-14T12:39:00.379Z,50.60
2017-04-14T12:40:01.415Z,50.80
2017-04-14T12:41:01.819Z,50.80
2017-04-14T12:42:02.344Z,51.00
2017-04-14T12:43:02.170Z,51.20
2017-04-14T12:44:01.944Z,51.80
2017-04-14T12:45:02.360Z,51.00
2017-04-14T12:46:03.091Z,50.30
2017-04-14T12:47:03.782Z,51.20
2017-04-14T12:48:03.615Z,51.50
2017-04-14T12:49:03.576Z,51.80
2017-04-14T12:50:04.006Z,51.80
2017-04-14T12:51:03.959Z,52.10
2017-04-14T12:52:03.941Z,51.80
2017-04-14T12:53:03.918Z,51.30
2017-04-14T12:54:04.238Z,50.60
2017-04-14T12:55:05.482Z,51.30
2017-04-14T12:56:05.405Z,51.60
2017-04-14T12:57:05.477Z,51.90